createdAt,value
2018-02-20T00:01:34.720Z,46.08
2018-02-20T00:04:02.957Z,47.55
2018-02-20T00:06:31.187Z,47.60
2018-02-20T00:09:00.348Z,49.70
2018-02-20T00:11:28.584Z,46.65
2018-02-20T00:13:56.820Z,47.25
2018-02-20T00:16:26.996Z,50.70
2018-02-20T00:18:55.240Z,48.03
2018-02-20T00:21:24.835Z,41.45
2018-02-20T00:23:54.244Z,43.47
2018-02-20T00:26:23.831Z,44.00
2018-02-20T00:28:51.940Z,42.03
2018-02-20T00:31:21.027Z,42.92
2018-02-20T00:33:49.257Z,49.13
2018-02-20T00:36:17.492Z,49.97
2018-02-20T00:38:50.732Z,52.15
2018-02-20T00:41:19.728Z,43.00
2018-02-20T00:43:48.352Z,47.83
2018-02-20T00:46:16.956Z,49.38
2018-02-20T00:48:45.951Z,49.00
2018-02-20T00:51:14.184Z,45.55
2018-02-20T00:53:42.988Z,51.83
2018-02-20T00:56:12.356Z,44.92
2018-02-20T00:58:40.605Z,47.33
2018-02-20T01:01:09.772Z,47.35
2018-02-20T01:03:39.524Z,46.55
2018-02-20T01:06:07.777Z,42.70
2018-02-20T01:08:37.525Z,49.95
2018-02-20T01:11:05.794Z,52.95
2018-02-20T01:13:35.171Z,43.70
2018-02-20T01:16:03.748Z,51.53
2018-02-20T01:18:33.486Z,50.33
2018-02-20T01:21:02.489Z,55.35
2018-02-20T01:23:32.444Z,41.53
2018-02-20T01:26:02.033Z,46.55
2018-02-20T01:28:30.140Z,43.50
2018-02-20T01:30:58.631Z,59.25
2018-02-20T01:33:27.996Z,45.55
2018-02-20T01:35:57.005Z,49.00
2018-02-20T01:38:25.393Z,49.22
2018-02-20T01:40:55.218Z,45.75
2018-02-20T01:43:24.593Z,48.70
2018-02-20T01:45:54.796Z,51.47
2018-02-20T01:48:23.020Z,47.67
2018-02-20T01:51:03.272Z,47.25
2018-02-20T01:53:31.505Z,46.00
2018-02-20T01:55:59.740Z,49.30
2018-02-20T01:58:29.580Z,47.67
2018-02-20T02:00:59.047Z,48.78
2018-02-20T02:03:28.508Z,58.15
2018-02-20T02:05:57.741Z,45.42
2018-02-20T02:08:27.480Z,49.00
2018-02-20T02:10:56.484Z,50.78
2018-02-20T02:13:24.974Z,49.85
2018-02-20T02:15:54.723Z,42.65
2018-02-20T02:18:22.952Z,47.03
2018-02-20T02:20:52.799Z,46.92
2018-02-20T02:23:22.412Z,46.20
2018-02-20T02:25:51.404Z,46.97
2018-02-20T02:28:21.483Z,45.42
2018-02-20T02:30:50.856Z,44.25
2018-02-20T02:33:19.076Z,46.63
2018-02-20T02:35:50.467Z,45.95
2018-02-20T02:38:19.101Z,48.63
2018-02-20T02:40:48.096Z,47.25
2018-02-20T02:43:20.828Z,50.12
2018-02-20T02:45:49.452Z,40.85
2018-02-20T02:48:17.685Z,43.72
2018-02-20T02:50:46.449Z,45.28
2018-02-20T02:53:16.033Z,47.50
2018-02-20T02:55:44.137Z,49.47
2018-02-20T03:00:48.169Z,43.90
2018-02-20T03:03:17.152Z,45.25
2018-02-20T03:05:46.892Z,41.55
2018-02-20T03:08:16.340Z,47.62
2018-02-20T03:10:45.336Z,43.78
2018-02-20T03:13:13.571Z,45.00
2018-02-20T03:15:42.616Z,45.42
2018-02-20T03:18:10.860Z,57.33
2018-02-20T03:20:39.113Z,53.55
2018-02-20T03:23:07.542Z,54.05
2018-02-20T03:25:35.825Z,47.17
2018-02-20T03:28:04.052Z,47.53
2018-02-20T03:30:32.413Z,56.60
2018-02-20T03:33:01.408Z,46.37
2018-02-20T03:35:30.408Z,49.10
2018-02-20T03:40:35.124Z,46.95
2018-02-20T03:43:04.691Z,46.22
2018-02-20T03:45:35.510Z,49.15
2018-02-20T03:50:40.948Z,47.90
2018-02-20T03:53:10.420Z,46.97
2018-02-20T03:55:38.559Z,45.55
2018-02-20T03:58:07.381Z,42.42
2018-02-20T04:00:36.751Z,56.20
2018-02-20T04:03:04.975Z,46.30
2018-02-20T04:05:34.850Z,55.58
2018-02-20T04:08:04.088Z,49.50
2018-02-20T04:10:33.099Z,52.80
2018-02-20T04:13:02.304Z,47.25
2018-02-20T04:15:31.300Z,44.08
2018-02-20T04:17:59.532Z,52.92
2018-02-20T04:20:28.036Z,52.60
2018-02-20T04:22:57.772Z,48.25
2018-02-20T04:25:26.785Z,50.53
2018-02-20T04:27:56.627Z,49.17
2018-02-20T04:30:26.230Z,48.90
2018-02-20T04:32:54.338Z,48.97
2018-02-20T04:35:23.064Z,48.30
2018-02-20T04:37:52.431Z,55.05
2018-02-20T04:40:21.056Z,47.78
2018-02-20T04:42:50.428Z,53.58
2018-02-20T04:45:19.428Z,50.72
2018-02-20T04:47:49.433Z,52.65
2018-02-20T04:50:17.802Z,54.38
2018-02-20T04:52:47.536Z,53.87
2018-02-20T04:55:17.268Z,59.70
2018-02-20T04:57:46.356Z,55.60
2018-02-20T05:00:15.344Z,59.15
2018-02-20T05:02:43.567Z,53.47
2018-02-20T05:05:12.012Z,55.78
2018-02-20T05:07:41.759Z,57.22
2018-02-20T05:10:09.992Z,59.70
2018-02-20T05:12:38.586Z,62.33
2018-02-20T05:15:06.848Z,59.65
2018-02-20T05:17:36.223Z,57.60
2018-02-20T05:20:05.328Z,53.55
2018-02-20T05:22:34.323Z,55.47
2018-02-20T05:25:03.326Z,51.47
2018-02-20T05:27:31.705Z,53.80
2018-02-20T05:30:00.731Z,54.97
2018-02-20T05:32:28.928Z,55.40
2018-02-20T05:34:57.492Z,54.80
2018-02-20T05:37:25.737Z,50.22
2018-02-20T05:39:53.960Z,55.40
2018-02-20T05:42:24.132Z,48.72
2018-02-20T05:44:53.492Z,58.90
2018-02-20T05:47:21.725Z,57.05
2018-02-20T05:49:50.779Z,58.10
2018-02-20T05:52:19.775Z,53.42
2018-02-20T05:54:49.359Z,59.13
2018-02-20T05:57:18.044Z,49.58
2018-02-20T05:59:47.968Z,53.33
2018-02-20T06:02:16.960Z,54.05
2018-02-20T06:04:46.858Z,57.53
2018-02-20T06:07:16.464Z,56.55
2018-02-20T06:09:45.460Z,62.17
2018-02-20T06:12:15.352Z,56.05
2018-02-20T06:14:43.588Z,57.67
2018-02-20T06:17:11.933Z,61.75
2018-02-20T06:19:41.073Z,58.70
2018-02-20T06:22:09.321Z,64.28
2018-02-20T06:24:37.567Z,61.97
2018-02-20T06:27:07.822Z,57.17
2018-02-20T06:29:36.073Z,59.67
2018-02-20T06:32:04.464Z,57.58
2018-02-20T06:34:34.552Z,60.90
2018-02-20T06:37:03.921Z,65.82
2018-02-20T06:39:32.148Z,68.78
2018-02-20T06:42:00.791Z,67.87
2018-02-20T06:44:30.160Z,59.25
2018-02-20T06:46:58.384Z,64.37
2018-02-20T06:49:26.937Z,63.75
2018-02-20T06:51:56.748Z,63.83
2018-02-20T06:54:24.873Z,61.83
2018-02-20T06:56:54.749Z,58.42
2018-02-20T06:59:22.976Z,58.53
2018-02-20T07:01:51.601Z,60.15
2018-02-20T07:04:20.038Z,65.07
2018-02-20T07:06:49.028Z,59.80
2018-02-20T07:09:18.021Z,65.12
2018-02-20T07:11:47.348Z,66.43
2018-02-20T07:14:15.576Z,61.85
2018-02-20T07:16:45.156Z,71.95
2018-02-20T07:19:14.548Z,65.80
2018-02-20T07:21:43.915Z,65.12
2018-02-20T07:24:12.152Z,63.50
2018-02-20T07:26:42.120Z,53.97
2018-02-20T07:29:11.864Z,64.87
2018-02-20T07:31:40.105Z,67.90
2018-02-20T07:36:44.027Z,67.65
2018-02-20T07:39:12.540Z,62.25
2018-02-20T07:41:41.552Z,68.60
2018-02-20T07:44:11.303Z,65.57
2018-02-20T07:46:39.546Z,60.95
2018-02-20T07:49:07.790Z,64.72
2018-02-20T07:51:37.436Z,66.93
2018-02-20T07:54:05.900Z,61.13
2018-02-20T07:56:34.123Z,67.45
2018-02-20T07:59:04.016Z,61.70
2018-02-20T08:01:32.247Z,66.43
2018-02-20T08:04:00.476Z,63.10
2018-02-20T08:06:29.700Z,55.63
2018-02-20T08:08:58.332Z,66.28
2018-02-20T08:11:26.572Z,61.17
2018-02-20T08:13:56.560Z,57.58
2018-02-20T08:16:24.787Z,56.97
2018-02-20T08:18:53.024Z,55.25
2018-02-20T08:21:21.459Z,62.30
2018-02-20T08:23:50.472Z,56.63
2018-02-20T08:26:19.468Z,56.43
2018-02-20T08:28:48.208Z,44.23
2018-02-20T08:31:16.831Z,50.33
2018-02-20T08:33:45.061Z,52.70
2018-02-20T08:36:14.388Z,45.40
2018-02-20T08:38:43.392Z,42.10
2018-02-20T08:41:11.635Z,42.90
2018-02-20T08:43:40.501Z,40.30
2018-02-20T08:46:09.520Z,45.20
2018-02-20T08:48:37.781Z,43.50
2018-02-20T08:51:07.145Z,42.10
2018-02-20T08:53:35.768Z,41.20
2018-02-20T08:56:04.279Z,40.00
2018-02-20T08:58:32.779Z,36.63
2018-02-20T09:01:01.014Z,41.37
2018-02-20T09:03:29.240Z,37.17
2018-02-20T09:05:59.823Z,40.20
2018-02-20T09:08:28.453Z,37.27
2018-02-20T09:10:56.704Z,36.70
2018-02-20T09:13:28.731Z,42.90
2018-02-20T09:15:56.987Z,39.13
2018-02-20T09:18:25.239Z,37.83
2018-02-20T09:20:54.687Z,33.90
2018-02-20T09:23:23.312Z,37.30
2018-02-20T09:25:51.547Z,38.00
2018-02-20T09:28:21.444Z,38.10
2018-02-20T09:30:49.676Z,35.60
2018-02-20T09:33:19.259Z,35.97
2018-02-20T09:35:47.926Z,36.10
2018-02-20T09:38:16.924Z,37.80
2018-02-20T09:40:46.730Z,35.40
2018-02-20T09:43:15.554Z,38.00
2018-02-20T09:45:44.175Z,35.87
2018-02-20T09:48:13.172Z,36.77
2018-02-20T09:50:42.880Z,36.60
2018-02-20T09:53:11.521Z,37.50
2018-02-20T09:55:40.539Z,37.27
2018-02-20T09:58:10.628Z,37.40
2018-02-20T10:00:38.763Z,37.17
2018-02-20T10:03:06.998Z,38.23
2018-02-20T10:05:35.444Z,36.63
2018-02-20T10:08:04.448Z,36.97
2018-02-20T10:10:33.448Z,34.17
2018-02-20T10:13:01.948Z,36.50
2018-02-20T10:15:31.693Z,36.80
2018-02-20T10:17:59.926Z,34.90
2018-02-20T10:20:29.868Z,35.73
2018-02-20T10:22:58.870Z,35.57
2018-02-20T10:25:27.880Z,35.23
2018-02-20T10:27:56.831Z,33.87
2018-02-20T10:30:25.076Z,37.80
2018-02-20T10:32:53.304Z,36.27
2018-02-20T10:35:22.547Z,36.43
2018-02-20T10:37:51.548Z,37.10
2018-02-20T10:40:20.548Z,39.53
2018-02-20T10:42:49.812Z,37.40
2018-02-20T10:45:18.811Z,36.87
2018-02-20T10:47:47.043Z,37.07
2018-02-20T10:50:16.152Z,37.07
2018-02-20T10:52:45.148Z,36.23
2018-02-20T10:55:13.379Z,37.90
2018-02-20T10:57:41.885Z,41.30
2018-02-20T11:00:10.436Z,40.27
2018-02-20T11:02:38.715Z,36.73
2018-02-20T11:05:07.823Z,40.60
2018-02-20T11:07:36.062Z,39.70
2018-02-20T11:10:04.287Z,39.23
2018-02-20T11:12:32.673Z,41.43
2018-02-20T11:15:00.904Z,41.57
2018-02-20T11:17:29.904Z,40.53
2018-02-20T11:19:59.156Z,40.80
2018-02-20T11:22:28.163Z,41.50
2018-02-20T11:24:57.175Z,40.07
2018-02-20T11:27:25.817Z,40.60
2018-02-20T11:30:02.420Z,41.90
2018-02-20T11:32:31.421Z,41.23
2018-02-20T11:34:59.673Z,39.47
2018-02-20T11:37:27.925Z,42.50
2018-02-20T11:39:57.064Z,41.47
2018-02-20T11:42:25.300Z,38.77
2018-02-20T11:44:53.531Z,38.77
2018-02-20T11:47:24.596Z,39.63
2018-02-20T11:49:54.192Z,39.03
2018-02-20T11:52:22.293Z,38.60
2018-02-20T11:54:52.756Z,39.03
2018-02-20T11:57:20.990Z,36.90
2018-02-20T11:59:49.220Z,34.97
2018-02-20T12:04:55.725Z,31.37
2018-02-20T12:07:24.722Z,28.53
2018-02-20T12:09:52.956Z,31.83
2018-02-20T12:12:21.574Z,28.70
2018-02-20T12:14:51.131Z,31.50
2018-02-20T12:17:20.003Z,28.67
2018-02-20T12:19:49.632Z,30.77
2018-02-20T12:22:17.863Z,30.40
2018-02-20T12:24:47.237Z,32.73
2018-02-20T12:27:16.824Z,32.47
2018-02-20T12:29:45.843Z,32.53
2018-02-20T12:32:14.073Z,31.37
2018-02-20T12:34:42.621Z,33.87
2018-02-20T12:37:12.204Z,33.00
2018-02-20T12:39:40.320Z,37.67
2018-02-20T12:42:08.860Z,30.30
2018-02-20T12:44:38.443Z,31.60
2018-02-20T12:47:06.552Z,29.23
2018-02-20T12:49:36.736Z,30.83
2018-02-20T12:52:06.476Z,32.30
2018-02-20T12:54:34.722Z,34.13
2018-02-20T12:57:03.296Z,32.73
2018-02-20T12:59:31.540Z,35.90
2018-02-20T13:01:59.787Z,30.93
2018-02-20T13:04:30.146Z,34.37
2018-02-20T13:06:59.159Z,30.77
2018-02-20T13:09:28.177Z,32.70
2018-02-20T13:11:59.067Z,28.20
2018-02-20T13:14:27.588Z,28.17
2018-02-20T13:16:56.545Z,27.17
2018-02-20T13:19:24.965Z,26.77
2018-02-20T13:21:53.964Z,27.83
2018-02-20T13:24:22.192Z,32.97
2018-02-20T13:26:50.796Z,29.03
2018-02-20T13:29:20.172Z,31.83
2018-02-20T13:31:48.400Z,31.27
2018-02-20T13:34:17.244Z,27.93
2018-02-20T13:36:46.616Z,24.60
2018-02-20T13:39:14.849Z,21.93
2018-02-20T13:41:43.384Z,25.17
2018-02-20T13:44:11.615Z,23.90
2018-02-20T13:46:39.844Z,22.87
2018-02-20T13:49:08.224Z,21.27
2018-02-20T13:51:37.231Z,26.10
2018-02-20T13:54:05.467Z,25.83
2018-02-20T13:56:34.752Z,28.83
2018-02-20T13:59:03.767Z,31.60
2018-02-20T14:01:32.005Z,31.77
2018-02-20T14:04:02.719Z,29.53
2018-02-20T14:06:31.965Z,25.50
2018-02-20T14:09:00.970Z,34.10
2018-02-20T14:11:31.141Z,30.37
2018-02-20T14:13:59.273Z,33.33
2018-02-20T14:16:28.294Z,36.93
2018-02-20T14:18:56.744Z,30.47
2018-02-20T14:21:24.980Z,30.07
2018-02-20T14:23:53.216Z,28.37
2018-02-20T14:26:22.558Z,37.60
2018-02-20T14:28:51.561Z,26.43
2018-02-20T14:31:19.792Z,27.00
2018-02-20T14:33:49.108Z,29.63
2018-02-20T14:36:17.345Z,28.53
2018-02-20T14:38:45.576Z,27.63
2018-02-20T14:41:14.538Z,24.70
2018-02-20T14:43:43.536Z,25.70
2018-02-20T14:46:12.542Z,25.80
2018-02-20T14:48:41.997Z,29.20
2018-02-20T14:51:11.735Z,26.20
2018-02-20T14:53:39.972Z,23.90
2018-02-20T14:56:08.753Z,33.93
2018-02-20T14:58:38.335Z,30.87
2018-02-20T15:01:06.500Z,29.17
2018-02-20T15:03:36.751Z,30.00
2018-02-20T15:06:05.633Z,28.87
2018-02-20T15:08:34.936Z,36.80
2018-02-20T15:11:05.235Z,33.20
2018-02-20T15:13:33.496Z,32.23
2018-02-20T15:16:02.885Z,35.40
2018-02-20T15:18:31.581Z,35.93
2018-02-20T15:21:01.321Z,34.10
2018-02-20T15:23:29.571Z,34.80
2018-02-20T15:25:58.060Z,31.30
2018-02-20T15:28:26.317Z,34.50
2018-02-20T15:30:55.717Z,34.07
2018-02-20T15:33:24.353Z,28.87
2018-02-20T15:35:54.101Z,39.60
2018-02-20T15:38:22.340Z,30.50
2018-02-20T15:40:50.912Z,36.63
2018-02-20T15:43:20.509Z,31.17
2018-02-20T15:45:48.620Z,32.00
2018-02-20T15:48:17.169Z,31.50
2018-02-20T15:50:45.405Z,34.27
2018-02-20T15:53:14.996Z,34.67
2018-02-20T15:55:43.176Z,33.90
2018-02-20T15:58:12.756Z,34.97
2018-02-20T16:00:41.256Z,36.37
2018-02-20T16:03:10.564Z,35.63
2018-02-20T16:05:39.188Z,37.13
2018-02-20T16:08:07.420Z,32.30
2018-02-20T16:10:42.886Z,37.83
2018-02-20T16:13:11.513Z,34.40
2018-02-20T16:15:40.528Z,28.10
2018-02-20T16:18:10.576Z,35.63
2018-02-20T16:20:38.688Z,36.60
2018-02-20T16:23:06.920Z,34.73
2018-02-20T16:28:10.328Z,33.63
2018-02-20T16:30:39.917Z,30.87
2018-02-20T16:33:08.420Z,33.70
2018-02-20T16:35:36.794Z,37.83
2018-02-20T16:38:05.041Z,35.70
2018-02-20T16:40:33.275Z,35.87
2018-02-20T16:43:02.142Z,42.23
2018-02-20T16:45:31.882Z,40.20
2018-02-20T16:48:00.126Z,39.70
2018-02-20T16:50:30.690Z,37.07
2018-02-20T16:52:59.577Z,35.67
2018-02-20T16:55:29.176Z,38.43
2018-02-20T16:57:57.948Z,42.80
2018-02-20T17:00:26.188Z,40.93
2018-02-20T17:02:54.421Z,41.87
2018-02-20T17:05:24.264Z,35.90
2018-02-20T17:07:54.004Z,40.97
2018-02-20T17:10:22.236Z,40.90
2018-02-20T17:12:52.352Z,36.87
2018-02-20T17:15:21.337Z,31.80
2018-02-20T17:17:49.573Z,32.20
2018-02-20T17:20:20.119Z,34.77
2018-02-20T17:22:49.117Z,42.17
2018-02-20T17:25:17.344Z,35.33
2018-02-20T17:27:45.850Z,35.20
2018-02-20T17:30:15.216Z,38.37
2018-02-20T17:32:43.482Z,38.13
2018-02-20T17:35:11.997Z,35.40
2018-02-20T17:37:41.365Z,41.43
2018-02-20T17:40:09.588Z,42.93
2018-02-20T17:42:39.877Z,40.10
2018-02-20T17:45:08.877Z,43.20
2018-02-20T17:47:37.109Z,48.73
2018-02-20T17:50:05.628Z,45.13
2018-02-20T17:52:33.864Z,36.40
2018-02-20T17:55:02.121Z,42.57
2018-02-20T17:57:30.616Z,39.03
2018-02-20T17:59:58.864Z,39.30
2018-02-20T18:02:27.808Z,37.50
2018-02-20T18:04:58.208Z,42.13
2018-02-20T18:07:27.583Z,40.57
2018-02-20T18:09:55.818Z,37.27
2018-02-20T18:12:25.645Z,39.20
2018-02-20T18:14:55.521Z,39.47
2018-02-20T18:17:23.744Z,43.83
2018-02-20T18:19:52.292Z,52.33
2018-02-20T18:22:21.292Z,43.53
2018-02-20T18:24:49.524Z,40.87
2018-02-20T18:27:17.831Z,38.17
2018-02-20T18:29:46.077Z,46.80
2018-02-20T18:32:14.314Z,39.73
2018-02-20T18:34:44.252Z,44.33
2018-02-20T18:37:12.876Z,46.53
2018-02-20T18:39:41.119Z,38.27
2018-02-20T18:42:10.053Z,47.23
2018-02-20T18:44:38.296Z,38.27
2018-02-20T18:47:07.289Z,42.30
2018-02-20T18:49:37.040Z,43.40
2018-02-20T18:52:06.777Z,44.17
2018-02-20T18:54:35.010Z,46.72
2018-02-20T18:57:04.340Z,42.03
2018-02-20T18:59:33.928Z,44.67
2018-02-20T19:02:02.065Z,44.47
2018-02-20T19:04:31.689Z,40.90
2018-02-20T19:06:59.935Z,48.80
2018-02-20T19:09:28.586Z,43.28
2018-02-20T19:11:58.689Z,45.15
2018-02-20T19:14:27.700Z,46.37
2018-02-20T19:16:56.911Z,46.60
2018-02-20T19:19:26.100Z,47.22
2018-02-20T19:21:54.337Z,42.70
2018-02-20T19:24:22.568Z,46.08
2018-02-20T19:26:50.936Z,44.03
2018-02-20T19:29:19.175Z,42.78
2018-02-20T19:31:48.549Z,42.92
2018-02-20T19:34:17.960Z,39.10
2018-02-20T19:36:46.600Z,46.92
2018-02-20T19:39:14.851Z,48.80
2018-02-20T19:41:44.192Z,47.72
2018-02-20T19:44:13.189Z,52.03
2018-02-20T19:46:41.416Z,47.07
2018-02-20T19:49:10.684Z,44.83
2018-02-20T19:51:39.268Z,47.88
2018-02-20T19:54:08.268Z,56.08
2018-02-20T19:56:38.116Z,49.53
2018-02-20T19:59:07.741Z,54.73
2018-02-20T20:01:37.326Z,47.97
2018-02-20T20:04:06.581Z,56.95
2018-02-20T20:06:35.952Z,54.70
2018-02-20T20:09:04.193Z,51.25
2018-02-20T20:14:07.175Z,50.13
2018-02-20T20:16:35.409Z,54.28
2018-02-20T20:19:03.854Z,55.30
2018-02-20T20:21:33.949Z,55.17
2018-02-20T20:24:02.960Z,55.08
2018-02-20T20:26:31.212Z,58.53
2018-02-20T20:28:59.606Z,54.53
2018-02-20T20:31:27.866Z,53.42
2018-02-20T20:33:56.153Z,54.58
2018-02-20T20:36:24.621Z,53.72
2018-02-20T20:38:54.360Z,51.15
2018-02-20T20:41:22.608Z,52.40
2018-02-20T20:43:51.933Z,58.40
2018-02-20T20:46:20.184Z,54.95
2018-02-20T20:48:48.426Z,51.47
2018-02-20T20:53:53.020Z,63.72
2018-02-20T20:56:22.617Z,62.15
2018-02-20T20:58:50.725Z,53.70
2018-02-20T21:01:20.630Z,56.20
2018-02-20T21:03:48.864Z,51.95
2018-02-20T21:06:17.516Z,55.90
2018-02-20T21:08:46.660Z,53.15
2018-02-20T21:11:16.034Z,51.45
2018-02-20T21:13:45.040Z,52.10
2018-02-20T21:16:13.694Z,54.85
2018-02-20T21:18:41.920Z,54.58
2018-02-20T21:21:12.272Z,62.25
2018-02-20T21:23:41.524Z,59.17
2018-02-20T21:26:09.767Z,61.10
2018-02-20T21:28:37.996Z,60.85
2018-02-20T21:31:06.372Z,56.85
2018-02-20T21:33:34.656Z,58.10
2018-02-20T21:36:02.853Z,60.53
2018-02-20T21:38:32.916Z,59.03
2018-02-20T21:41:01.161Z,61.08
2018-02-20T21:43:29.430Z,80.00
2018-02-20T21:45:58.948Z,62.22
2018-02-20T21:48:27.197Z,63.58
2018-02-20T21:50:55.428Z,64.70
2018-02-20T21:53:24.957Z,63.92
2018-02-20T21:55:53.961Z,60.83
2018-02-20T21:58:23.551Z,59.55
2018-02-20T22:00:52.141Z,57.55
2018-02-20T22:03:21.141Z,60.05
2018-02-20T22:05:50.348Z,61.30
2018-02-20T22:08:19.792Z,58.03
2018-02-20T22:10:49.528Z,62.45
2018-02-20T22:13:17.768Z,65.93
2018-02-20T22:15:46.323Z,70.40
2018-02-20T22:18:14.558Z,66.40
2018-02-20T22:20:42.795Z,63.30
2018-02-20T22:23:12.388Z,64.12
2018-02-20T22:25:41.971Z,67.45
2018-02-20T22:28:11.220Z,63.55
2018-02-20T22:30:39.632Z,62.70
2018-02-20T22:33:08.632Z,63.40
2018-02-20T22:35:38.216Z,70.47
2018-02-20T22:38:07.430Z,71.20
2018-02-20T22:40:37.173Z,67.50
2018-02-20T22:43:05.406Z,67.78
2018-02-20T22:45:34.268Z,64.78
2018-02-20T22:48:03.265Z,65.28
2018-02-20T22:50:31.509Z,62.85
2018-02-20T22:53:00.219Z,67.18
2018-02-20T22:55:28.462Z,68.15
2018-02-20T22:57:57.853Z,72.25
2018-02-20T23:00:26.365Z,75.35
2018-02-20T23:02:55.951Z,68.30
2018-02-20T23:05:24.052Z,61.53
2018-02-20T23:07:52.575Z,74.07
2018-02-20T23:10:22.317Z,71.90
2018-02-20T23:12:51.919Z,73.28
2018-02-20T23:15:21.294Z,66.43
2018-02-20T23:17:49.519Z,69.85
2018-02-20T23:20:17.759Z,73.68
2018-02-20T23:22:47.844Z,68.32
2018-02-20T23:25:18.929Z,66.82
2018-02-20T23:27:47.195Z,66.57
2018-02-20T23:30:16.748Z,69.87
2018-02-20T23:32:45.384Z,73.78
2018-02-20T23:35:13.617Z,72.05
2018-02-20T23:40:16.608Z,66.05
2018-02-20T23:42:45.621Z,79.75
2018-02-20T23:45:15.208Z,71.43
2018-02-20T23:47:44.483Z,73.97
2018-02-20T23:50:14.060Z,69.37
2018-02-20T23:52:42.172Z,74.03
2018-02-20T23:55:12.352Z,69.25
2018-02-20T23:57:41.344Z,77.35
